This is the latest recevied weather packets stored in our database for station/object DG1UDO-13. If no packets are shown the sender has not sent any weather packets the latest 10 day(s).
| Time | Temp. | Humidity | Pressure | Rain* | Wind** | Luminosity | Snow |
|---|---|---|---|---|---|---|---|
| 1777541701 | 15.56° C | 36% | 1033.7 hPa | - | - | - | - |
| 1777539901 | 14.44° C | 36% | 1033.7 hPa | - | - | - | - |
| 1777538101 | 14.44° C | 37% | 1033.9 hPa | - | - | - | - |
| 1777536301 | 13.33° C | 39% | 1033.9 hPa | - | - | - | - |
| 1777534501 | 12.22° C | 44% | 1033.9 hPa | - | - | - | - |
| 1777532700 | 11.67° C | 49% | 1033.9 hPa | - | - | - | - |
| 1777530901 | 10° C | 68% | 1033.8 hPa | - | - | - | - |
| 1777529101 | 7.78° C | 75% | 1033.7 hPa | - | - | - | - |
| 1777527301 | 5.56° C | 80% | 1033.5 hPa | - | - | - | - |
| 1777525501 | 5.56° C | 83% | 1033.2 hPa | - | - | - | - |
| 1777523701 | 3.89° C | 86% | 1033 hPa | - | - | - | - |
| 1777521901 | 3.33° C | 85% | 1033 hPa | - | - | - | - |
| 1777520101 | 3.89° C | 82% | 1032.8 hPa | - | - | - | - |
| 1777518301 | 4.44° C | 81% | 1032.9 hPa | - | - | - | - |
| 1777516501 | 4.44° C | 81% | 1032.8 hPa | - | - | - | - |
| 1777514701 | 3.89° C | 79% | 1032.7 hPa | - | - | - | - |
| 1777512901 | 4.44° C | 77% | 1032.6 hPa | - | - | - | - |
| 1777511100 | 5° C | 75% | 1032.5 hPa | - | - | - | - |
| 1777509300 | 5.56° C | 73% | 1032.3 hPa | - | - | - | - |
| 1777507500 | 6.67° C | 70% | 1032.6 hPa | - | - | - | - |
| 1777505701 | 6.67° C | 68% | 1032.6 hPa | - | - | - | - |
| 1777503901 | 6.67° C | 66% | 1032.3 hPa | - | - | - | - |
| 1777502100 | 7.22° C | 64% | 1032.4 hPa | - | - | - | - |
| 1777500301 | 8.33° C | 59% | 1032 hPa | - | - | - | - |
| 1777498501 | 9.44° C | 56% | 1031.8 hPa | - | - | - | - |
* Rain since midnight (hover to see other rain measurements)
** Current wind speed in m/s (hover to see current wind gust speed)